sensor_id;sensor_type;location;lat;lon;timestamp;P1;durP1;ratioP1;P2;durP2;ratioP2
39434;SDS011;66825;51.880;-0.518;2024-02-14T12:00:39;16.13;;;4.57;;
39434;SDS011;66825;51.880;-0.518;2024-02-14T12:03:12;13.03;;;5.37;;
39434;SDS011;66825;51.880;-0.518;2024-02-14T12:06:00;15.55;;;4.78;;
39434;SDS011;66825;51.880;-0.518;2024-02-14T12:08:27;15.98;;;5.68;;
39434;SDS011;66825;51.880;-0.518;2024-02-14T12:10:53;26.00;;;9.77;;
39434;SDS011;66825;51.880;-0.518;2024-02-14T12:13:21;14.15;;;5.18;;
39434;SDS011;66825;51.880;-0.518;2024-02-14T12:15:47;14.68;;;5.70;;
39434;SDS011;66825;51.880;-0.518;2024-02-14T12:18:14;6.75;;;2.53;;
39434;SDS011;66825;51.880;-0.518;2024-02-14T12:20:41;8.55;;;2.20;;
39434;SDS011;66825;51.880;-0.518;2024-02-14T12:23:13;7.57;;;2.80;;
39434;SDS011;66825;51.880;-0.518;2024-02-14T12:25:40;10.27;;;3.50;;
39434;SDS011;66825;51.880;-0.518;2024-02-14T12:28:06;11.90;;;3.35;;
39434;SDS011;66825;51.880;-0.518;2024-02-14T12:30:44;7.63;;;2.92;;
39434;SDS011;66825;51.880;-0.518;2024-02-14T12:33:12;6.32;;;2.88;;
39434;SDS011;66825;51.880;-0.518;2024-02-14T12:35:45;6.35;;;2.33;;
39434;SDS011;66825;51.880;-0.518;2024-02-14T12:38:12;10.95;;;2.85;;
39434;SDS011;66825;51.880;-0.518;2024-02-14T12:40:38;7.22;;;2.70;;
39434;SDS011;66825;51.880;-0.518;2024-02-14T12:43:14;7.20;;;2.38;;
39434;SDS011;66825;51.880;-0.518;2024-02-14T12:45:43;9.93;;;2.90;;
39434;SDS011;66825;51.880;-0.518;2024-02-14T12:48:09;6.60;;;2.50;;
39434;SDS011;66825;51.880;-0.518;2024-02-14T12:50:37;7.47;;;2.40;;
39434;SDS011;66825;51.880;-0.518;2024-02-14T12:53:03;10.23;;;2.40;;
39434;SDS011;66825;51.880;-0.518;2024-02-14T12:55:29;7.35;;;2.20;;
39434;SDS011;66825;51.880;-0.518;2024-02-14T12:57:55;9.00;;;2.42;;
39434;SDS011;66825;51.880;-0.518;2024-02-14T13:00:24;8.65;;;2.53;;
39434;SDS011;66825;51.880;-0.518;2024-02-14T13:02:50;8.85;;;2.50;;
39434;SDS011;66825;51.880;-0.518;2024-02-14T13:05:16;5.90;;;2.30;;
39434;SDS011;66825;51.880;-0.518;2024-02-14T13:07:41;7.45;;;2.30;;
39434;SDS011;66825;51.880;-0.518;2024-02-14T13:10:07;8.18;;;2.33;;
39434;SDS011;66825;51.880;-0.518;2024-02-14T13:12:35;6.30;;;2.30;;
39434;SDS011;66825;51.880;-0.518;2024-02-14T13:15:02;7.22;;;2.15;;
39434;SDS011;66825;51.880;-0.518;2024-02-14T13:17:29;6.63;;;2.33;;
39434;SDS011;66825;51.880;-0.518;2024-02-14T13:19:54;6.55;;;2.05;;
39434;SDS011;66825;51.880;-0.518;2024-02-14T13:22:20;6.13;;;1.88;;
39434;SDS011;66825;51.880;-0.518;2024-02-14T13:24:45;7.97;;;2.25;;
39434;SDS011;66825;51.880;-0.518;2024-02-14T13:27:11;5.57;;;2.10;;
39434;SDS011;66825;51.880;-0.518;2024-02-14T13:29:36;5.00;;;1.77;;
39434;SDS011;66825;51.880;-0.518;2024-02-14T13:32:02;9.48;;;2.80;;
39434;SDS011;66825;51.880;-0.518;2024-02-14T13:34:27;7.32;;;2.20;;
39434;SDS011;66825;51.880;-0.518;2024-02-14T13:36:53;10.05;;;2.55;;
39434;SDS011;66825;51.880;-0.518;2024-02-14T13:39:21;12.82;;;2.60;;
39434;SDS011;66825;51.880;-0.518;2024-02-14T13:41:47;6.30;;;2.00;;
39434;SDS011;66825;51.880;-0.518;2024-02-14T13:44:13;5.78;;;2.20;;
39434;SDS011;66825;51.880;-0.518;2024-02-14T13:46:38;9.80;;;2.58;;
39434;SDS011;66825;51.880;-0.518;2024-02-14T13:49:09;14.15;;;3.00;;
39434;SDS011;66825;51.880;-0.518;2024-02-14T13:51:37;9.65;;;2.63;;
39434;SDS011;66825;51.880;-0.518;2024-02-14T13:54:02;11.93;;;3.00;;
39434;SDS011;66825;51.880;-0.518;2024-02-14T13:56:28;12.15;;;3.50;;
39434;SDS011;66825;51.880;-0.518;2024-02-14T13:58:54;11.30;;;3.30;;
39434;SDS011;66825;51.880;-0.518;2024-02-14T14:01:20;10.65;;;2.95;;
39434;SDS011;66825;51.880;-0.518;2024-02-14T14:03:45;11.63;;;2.90;;
39434;SDS011;66825;51.880;-0.518;2024-02-14T14:06:12;10.77;;;3.30;;
39434;SDS011;66825;51.880;-0.518;2024-02-14T14:08:39;8.73;;;2.58;;
39434;SDS011;66825;51.880;-0.518;2024-02-14T14:11:04;8.20;;;2.47;;
39434;SDS011;66825;51.880;-0.518;2024-02-14T14:13:30;12.85;;;2.80;;
39434;SDS011;66825;51.880;-0.518;2024-02-14T14:15:58;7.38;;;2.45;;
39434;SDS011;66825;51.880;-0.518;2024-02-14T14:18:24;9.18;;;2.00;;
39434;SDS011;66825;51.880;-0.518;2024-02-14T14:20:50;6.43;;;2.13;;
39434;SDS011;66825;51.880;-0.518;2024-02-14T14:23:16;7.00;;;2.20;;
39434;SDS011;66825;51.880;-0.518;2024-02-14T14:25:42;8.77;;;3.08;;
39434;SDS011;66825;51.880;-0.518;2024-02-14T14:28:07;6.40;;;2.20;;
39434;SDS011;66825;51.880;-0.518;2024-02-14T14:30:35;8.93;;;2.40;;
39434;SDS011;66825;51.880;-0.518;2024-02-14T14:33:00;7.78;;;2.33;;
39434;SDS011;66825;51.880;-0.518;2024-02-14T14:35:27;8.93;;;2.10;;
39434;SDS011;66825;51.880;-0.518;2024-02-14T14:37:53;5.75;;;2.17;;
39434;SDS011;66825;51.880;-0.518;2024-02-14T14:40:19;6.22;;;2.10;;
39434;SDS011;66825;51.880;-0.518;2024-02-14T14:42:46;7.88;;;2.00;;
39434;SDS011;66825;51.880;-0.518;2024-02-14T14:45:12;6.45;;;2.03;;
39434;SDS011;66825;51.880;-0.518;2024-02-14T14:47:37;5.35;;;2.08;;
39434;SDS011;66825;51.880;-0.518;2024-02-14T14:50:03;9.80;;;2.00;;
39434;SDS011;66825;51.880;-0.518;2024-02-14T14:52:30;8.35;;;2.10;;
39434;SDS011;66825;51.880;-0.518;2024-02-14T14:54:56;6.13;;;1.95;;
39434;SDS011;66825;51.880;-0.518;2024-02-14T14:57:21;7.60;;;2.20;;
39434;SDS011;66825;51.880;-0.518;2024-02-14T14:59:49;14.88;;;3.10;;
39434;SDS011;66825;51.880;-0.518;2024-02-14T15:02:15;7.95;;;2.10;;
39434;SDS011;66825;51.880;-0.518;2024-02-14T15:04:41;9.10;;;2.53;;
39434;SDS011;66825;51.880;-0.518;2024-02-14T15:07:09;7.93;;;2.20;;
39434;SDS011;66825;51.880;-0.518;2024-02-14T15:09:35;6.45;;;2.28;;
39434;SDS011;66825;51.880;-0.518;2024-02-14T15:12:00;8.63;;;2.35;;
39434;SDS011;66825;51.880;-0.518;2024-02-14T15:14:26;8.65;;;2.30;;
39434;SDS011;66825;51.880;-0.518;2024-02-14T15:16:51;8.95;;;2.33;;
39434;SDS011;66825;51.880;-0.518;2024-02-14T15:19:17;6.07;;;2.40;;
39434;SDS011;66825;51.880;-0.518;2024-02-14T15:21:43;7.75;;;2.30;;
39434;SDS011;66825;51.880;-0.518;2024-02-14T15:24:09;6.57;;;2.10;;
39434;SDS011;66825;51.880;-0.518;2024-02-14T15:26:35;7.88;;;2.53;;
39434;SDS011;66825;51.880;-0.518;2024-02-14T15:29:18;6.55;;;2.22;;
39434;SDS011;66825;51.880;-0.518;2024-02-14T15:32:03;10.77;;;2.95;;
39434;SDS011;66825;51.880;-0.518;2024-02-14T15:34:48;10.57;;;2.63;;
39434;SDS011;66825;51.880;-0.518;2024-02-14T15:37:14;7.07;;;2.22;;
39434;SDS011;66825;51.880;-0.518;2024-02-14T15:39:39;6.88;;;2.30;;
39434;SDS011;66825;51.880;-0.518;2024-02-14T15:42:05;10.43;;;2.80;;
39434;SDS011;66825;51.880;-0.518;2024-02-14T15:44:30;7.75;;;2.13;;
39434;SDS011;66825;51.880;-0.518;2024-02-14T15:46:56;9.77;;;2.85;;
39434;SDS011;66825;51.880;-0.518;2024-02-14T15:49:21;10.57;;;2.70;;
39434;SDS011;66825;51.880;-0.518;2024-02-14T15:51:47;8.75;;;2.92;;
39434;SDS011;66825;51.880;-0.518;2024-02-14T15:54:15;9.13;;;2.50;;
39434;SDS011;66825;51.880;-0.518;2024-02-14T15:56:42;7.65;;;2.53;;
39434;SDS011;66825;51.880;-0.518;2024-02-14T15:59:07;7.82;;;2.28;;
39434;SDS011;66825;51.880;-0.518;2024-02-14T16:01:33;8.27;;;2.30;;
39434;SDS011;66825;51.880;-0.518;2024-02-14T16:03:59;7.03;;;2.45;;
39434;SDS011;66825;51.880;-0.518;2024-02-14T16:06:25;9.23;;;2.58;;
39434;SDS011;66825;51.880;-0.518;2024-02-14T16:08:50;8.88;;;2.38;;
39434;SDS011;66825;51.880;-0.518;2024-02-14T16:11:17;8.80;;;2.30;;
39434;SDS011;66825;51.880;-0.518;2024-02-14T16:13:43;12.23;;;3.20;;
39434;SDS011;66825;51.880;-0.518;2024-02-14T16:16:09;11.75;;;2.97;;
39434;SDS011;66825;51.880;-0.518;2024-02-14T16:18:35;8.13;;;2.78;;
39434;SDS011;66825;51.880;-0.518;2024-02-14T16:21:01;7.03;;;2.28;;
39434;SDS011;66825;51.880;-0.518;2024-02-14T16:23:27;10.85;;;2.78;;
39434;SDS011;66825;51.880;-0.518;2024-02-14T16:25:53;8.75;;;2.65;;
39434;SDS011;66825;51.880;-0.518;2024-02-14T16:28:18;7.95;;;2.47;;
39434;SDS011;66825;51.880;-0.518;2024-02-14T16:30:44;7.60;;;2.30;;
39434;SDS011;66825;51.880;-0.518;2024-02-14T16:33:10;7.30;;;2.70;;
39434;SDS011;66825;51.880;-0.518;2024-02-14T16:35:35;7.60;;;2.40;;
39434;SDS011;66825;51.880;-0.518;2024-02-14T16:38:01;10.52;;;2.78;;
39434;SDS011;66825;51.880;-0.518;2024-02-14T16:40:26;10.52;;;2.50;;
39434;SDS011;66825;51.880;-0.518;2024-02-14T16:42:54;8.15;;;2.47;;
39434;SDS011;66825;51.880;-0.518;2024-02-14T16:45:19;8.75;;;2.50;;
39434;SDS011;66825;51.880;-0.518;2024-02-14T16:47:45;9.85;;;2.55;;
39434;SDS011;66825;51.880;-0.518;2024-02-14T16:50:11;8.98;;;3.00;;
39434;SDS011;66825;51.880;-0.518;2024-02-14T16:52:36;7.65;;;2.60;;
39434;SDS011;66825;51.880;-0.518;2024-02-14T16:55:02;11.93;;;3.40;;
39434;SDS011;66825;51.880;-0.518;2024-02-14T16:57:28;14.07;;;3.35;;
39434;SDS011;66825;51.880;-0.518;2024-02-14T16:59:54;11.00;;;3.13;;
39434;SDS011;66825;51.880;-0.518;2024-02-14T17:02:19;9.48;;;2.88;;
39434;SDS011;66825;51.880;-0.518;2024-02-14T17:04:45;11.07;;;3.42;;
39434;SDS011;66825;51.880;-0.518;2024-02-14T17:07:11;10.18;;;2.90;;
39434;SDS011;66825;51.880;-0.518;2024-02-14T17:09:39;9.98;;;2.80;;
39434;SDS011;66825;51.880;-0.518;2024-02-14T17:12:07;10.32;;;2.75;;
39434;SDS011;66825;51.880;-0.518;2024-02-14T17:14:36;9.38;;;2.50;;
39434;SDS011;66825;51.880;-0.518;2024-02-14T17:17:02;12.57;;;2.90;;
39434;SDS011;66825;51.880;-0.518;2024-02-14T17:19:28;8.93;;;3.08;;
39434;SDS011;66825;51.880;-0.518;2024-02-14T17:21:54;9.23;;;2.80;;
39434;SDS011;66825;51.880;-0.518;2024-02-14T17:24:19;10.80;;;2.80;;
39434;SDS011;66825;51.880;-0.518;2024-02-14T17:26:45;5.93;;;2.42;;
39434;SDS011;66825;51.880;-0.518;2024-02-14T17:29:11;6.55;;;2.17;;
39434;SDS011;66825;51.880;-0.518;2024-02-14T17:31:37;6.68;;;2.30;;
39434;SDS011;66825;51.880;-0.518;2024-02-14T17:34:03;8.07;;;2.25;;
39434;SDS011;66825;51.880;-0.518;2024-02-14T17:36:30;10.38;;;2.55;;
39434;SDS011;66825;51.880;-0.518;2024-02-14T17:38:56;6.38;;;2.38;;
39434;SDS011;66825;51.880;-0.518;2024-02-14T17:41:26;5.70;;;2.30;;
39434;SDS011;66825;51.880;-0.518;2024-02-14T17:43:52;8.68;;;2.47;;
39434;SDS011;66825;51.880;-0.518;2024-02-14T17:46:21;6.30;;;2.22;;
39434;SDS011;66825;51.880;-0.518;2024-02-14T17:48:47;5.25;;;1.70;;
39434;SDS011;66825;51.880;-0.518;2024-02-14T17:51:13;7.55;;;2.10;;
39434;SDS011;66825;51.880;-0.518;2024-02-14T17:53:40;6.28;;;1.98;;
39434;SDS011;66825;51.880;-0.518;2024-02-14T17:56:05;5.57;;;1.85;;
39434;SDS011;66825;51.880;-0.518;2024-02-14T17:58:31;5.28;;;1.90;;
39434;SDS011;66825;51.880;-0.518;2024-02-14T18:00:58;4.70;;;1.73;;
39434;SDS011;66825;51.880;-0.518;2024-02-14T18:03:23;5.70;;;1.90;;
39434;SDS011;66825;51.880;-0.518;2024-02-14T18:05:49;5.45;;;2.20;;
39434;SDS011;66825;51.880;-0.518;2024-02-14T18:08:14;5.70;;;1.70;;
39434;SDS011;66825;51.880;-0.518;2024-02-14T18:10:40;4.53;;;1.65;;
39434;SDS011;66825;51.880;-0.518;2024-02-14T18:13:06;6.07;;;2.33;;
39434;SDS011;66825;51.880;-0.518;2024-02-14T18:15:32;5.18;;;1.63;;
39434;SDS011;66825;51.880;-0.518;2024-02-14T18:17:58;4.63;;;1.88;;
39434;SDS011;66825;51.880;-0.518;2024-02-14T18:20:23;3.70;;;1.75;;
39434;SDS011;66825;51.880;-0.518;2024-02-14T18:22:49;5.72;;;1.85;;
39434;SDS011;66825;51.880;-0.518;2024-02-14T18:25:14;5.50;;;1.80;;
39434;SDS011;66825;51.880;-0.518;2024-02-14T18:27:40;3.70;;;1.70;;
39434;SDS011;66825;51.880;-0.518;2024-02-14T18:30:06;5.43;;;1.67;;
39434;SDS011;66825;51.880;-0.518;2024-02-14T18:32:32;4.65;;;1.90;;
39434;SDS011;66825;51.880;-0.518;2024-02-14T18:34:59;3.47;;;1.48;;
39434;SDS011;66825;51.880;-0.518;2024-02-14T18:37:24;4.70;;;1.67;;
39434;SDS011;66825;51.880;-0.518;2024-02-14T18:39:50;4.88;;;1.65;;
39434;SDS011;66825;51.880;-0.518;2024-02-14T18:42:18;3.70;;;1.40;;
39434;SDS011;66825;51.880;-0.518;2024-02-14T18:44:44;3.85;;;1.63;;
39434;SDS011;66825;51.880;-0.518;2024-02-14T18:47:10;4.35;;;1.60;;
39434;SDS011;66825;51.880;-0.518;2024-02-14T18:49:35;3.70;;;1.40;;
39434;SDS011;66825;51.880;-0.518;2024-02-14T18:52:02;3.35;;;1.55;;
39434;SDS011;66825;51.880;-0.518;2024-02-14T18:54:27;4.22;;;1.45;;
39434;SDS011;66825;51.880;-0.518;2024-02-14T18:56:55;2.75;;;1.30;;
39434;SDS011;66825;51.880;-0.518;2024-02-14T18:59:20;4.40;;;1.48;;
39434;SDS011;66825;51.880;-0.518;2024-02-14T19:01:46;4.38;;;1.50;;
39434;SDS011;66825;51.880;-0.518;2024-02-14T19:04:11;3.67;;;1.27;;
39434;SDS011;66825;51.880;-0.518;2024-02-14T19:06:36;3.53;;;1.55;;
39434;SDS011;66825;51.880;-0.518;2024-02-14T19:09:03;3.53;;;1.65;;
39434;SDS011;66825;51.880;-0.518;2024-02-14T19:11:29;3.25;;;1.60;;
39434;SDS011;66825;51.880;-0.518;2024-02-14T19:13:55;3.15;;;1.40;;
39434;SDS011;66825;51.880;-0.518;2024-02-14T19:16:22;3.35;;;1.45;;
39434;SDS011;66825;51.880;-0.518;2024-02-14T19:18:48;2.92;;;1.33;;
39434;SDS011;66825;51.880;-0.518;2024-02-14T19:21:13;2.53;;;1.20;;
39434;SDS011;66825;51.880;-0.518;2024-02-14T19:23:40;3.70;;;1.65;;
39434;SDS011;66825;51.880;-0.518;2024-02-14T19:26:06;3.97;;;1.55;;
39434;SDS011;66825;51.880;-0.518;2024-02-14T19:28:31;2.95;;;1.30;;
39434;SDS011;66825;51.880;-0.518;2024-02-14T19:30:57;2.40;;;1.35;;
39434;SDS011;66825;51.880;-0.518;2024-02-14T19:33:22;2.85;;;1.30;;
39434;SDS011;66825;51.880;-0.518;2024-02-14T19:35:47;2.90;;;1.20;;
39434;SDS011;66825;51.880;-0.518;2024-02-14T19:38:13;3.33;;;1.23;;
39434;SDS011;66825;51.880;-0.518;2024-02-14T19:40:38;3.42;;;1.33;;
39434;SDS011;66825;51.880;-0.518;2024-02-14T19:43:04;3.03;;;1.40;;
39434;SDS011;66825;51.880;-0.518;2024-02-14T19:45:29;2.75;;;1.30;;
39434;SDS011;66825;51.880;-0.518;2024-02-14T19:47:55;2.72;;;1.33;;
39434;SDS011;66825;51.880;-0.518;2024-02-14T19:50:20;2.33;;;1.02;;
39434;SDS011;66825;51.880;-0.518;2024-02-14T19:52:46;3.17;;;1.20;;
39434;SDS011;66825;51.880;-0.518;2024-02-14T19:55:12;3.50;;;1.25;;
39434;SDS011;66825;51.880;-0.518;2024-02-14T19:57:39;2.72;;;1.30;;
39434;SDS011;66825;51.880;-0.518;2024-02-14T20:00:05;2.17;;;1.25;;
39434;SDS011;66825;51.880;-0.518;2024-02-14T20:02:33;2.10;;;0.90;;
39434;SDS011;66825;51.880;-0.518;2024-02-14T20:05:01;3.90;;;1.08;;
39434;SDS011;66825;51.880;-0.518;2024-02-14T20:07:26;2.42;;;1.30;;
39434;SDS011;66825;51.880;-0.518;2024-02-14T20:09:52;2.03;;;1.10;;
39434;SDS011;66825;51.880;-0.518;2024-02-14T20:12:18;2.30;;;1.00;;
39434;SDS011;66825;51.880;-0.518;2024-02-14T20:14:44;2.75;;;1.10;;
39434;SDS011;66825;51.880;-0.518;2024-02-14T20:17:10;3.22;;;1.20;;
39434;SDS011;66825;51.880;-0.518;2024-02-14T20:19:37;3.03;;;1.20;;
39434;SDS011;66825;51.880;-0.518;2024-02-14T20:22:07;1.98;;;1.08;;
39434;SDS011;66825;51.880;-0.518;2024-02-14T20:24:33;2.88;;;1.42;;
39434;SDS011;66825;51.880;-0.518;2024-02-14T20:27:00;2.35;;;1.02;;
39434;SDS011;66825;51.880;-0.518;2024-02-14T20:29:26;1.92;;;1.00;;
39434;SDS011;66825;51.880;-0.518;2024-02-14T20:31:52;2.65;;;1.08;;
39434;SDS011;66825;51.880;-0.518;2024-02-14T20:34:21;2.35;;;1.00;;
39434;SDS011;66825;51.880;-0.518;2024-02-14T20:36:47;2.80;;;1.10;;
39434;SDS011;66825;51.880;-0.518;2024-02-14T20:39:12;1.80;;;1.00;;
39434;SDS011;66825;51.880;-0.518;2024-02-14T20:41:38;1.90;;;1.10;;
39434;SDS011;66825;51.880;-0.518;2024-02-14T20:44:04;1.50;;;0.80;;
39434;SDS011;66825;51.880;-0.518;2024-02-14T20:46:32;2.88;;;0.80;;
39434;SDS011;66825;51.880;-0.518;2024-02-14T20:48:58;2.47;;;0.90;;
39434;SDS011;66825;51.880;-0.518;2024-02-14T20:51:24;1.75;;;1.00;;
39434;SDS011;66825;51.880;-0.518;2024-02-14T20:53:52;1.67;;;0.80;;
39434;SDS011;66825;51.880;-0.518;2024-02-14T20:56:18;1.85;;;1.00;;
39434;SDS011;66825;51.880;-0.518;2024-02-14T20:58:44;1.58;;;1.08;;
39434;SDS011;66825;51.880;-0.518;2024-02-14T21:01:09;1.67;;;0.90;;
39434;SDS011;66825;51.880;-0.518;2024-02-14T21:03:36;2.25;;;0.95;;
39434;SDS011;66825;51.880;-0.518;2024-02-14T21:06:02;1.63;;;0.75;;
39434;SDS011;66825;51.880;-0.518;2024-02-14T21:08:27;2.20;;;0.80;;
39434;SDS011;66825;51.880;-0.518;2024-02-14T21:10:53;2.08;;;0.90;;
39434;SDS011;66825;51.880;-0.518;2024-02-14T21:13:19;2.33;;;0.90;;
39434;SDS011;66825;51.880;-0.518;2024-02-14T21:15:45;1.67;;;0.80;;
39434;SDS011;66825;51.880;-0.518;2024-02-14T21:18:10;1.83;;;0.80;;
39434;SDS011;66825;51.880;-0.518;2024-02-14T21:20:36;1.67;;;0.90;;
39434;SDS011;66825;51.880;-0.518;2024-02-14T21:23:03;1.70;;;0.70;;
39434;SDS011;66825;51.880;-0.518;2024-02-14T21:25:29;1.67;;;0.80;;
39434;SDS011;66825;51.880;-0.518;2024-02-14T21:27:55;1.38;;;0.70;;
39434;SDS011;66825;51.880;-0.518;2024-02-14T21:30:21;1.33;;;0.80;;
39434;SDS011;66825;51.880;-0.518;2024-02-14T21:32:49;1.30;;;0.73;;
39434;SDS011;66825;51.880;-0.518;2024-02-14T21:35:15;2.33;;;0.90;;
39434;SDS011;66825;51.880;-0.518;2024-02-14T21:37:41;1.92;;;0.95;;
39434;SDS011;66825;51.880;-0.518;2024-02-14T21:40:07;2.33;;;0.80;;
39434;SDS011;66825;51.880;-0.518;2024-02-14T21:42:33;1.67;;;0.90;;
39434;SDS011;66825;51.880;-0.518;2024-02-14T21:44:59;1.90;;;0.80;;
39434;SDS011;66825;51.880;-0.518;2024-02-14T21:47:25;1.70;;;0.80;;
39434;SDS011;66825;51.880;-0.518;2024-02-14T21:49:50;1.23;;;0.63;;
39434;SDS011;66825;51.880;-0.518;2024-02-14T21:52:16;1.98;;;0.90;;
39434;SDS011;66825;51.880;-0.518;2024-02-14T21:54:42;1.75;;;0.80;;
39434;SDS011;66825;51.880;-0.518;2024-02-14T21:57:07;1.85;;;0.80;;
39434;SDS011;66825;51.880;-0.518;2024-02-14T21:59:33;1.20;;;0.68;;
39434;SDS011;66825;51.880;-0.518;2024-02-14T22:01:59;1.55;;;0.63;;
39434;SDS011;66825;51.880;-0.518;2024-02-14T22:04:24;1.65;;;0.77;;
39434;SDS011;66825;51.880;-0.518;2024-02-14T22:06:50;1.20;;;0.70;;
39434;SDS011;66825;51.880;-0.518;2024-02-14T22:09:15;1.95;;;0.80;;
39434;SDS011;66825;51.880;-0.518;2024-02-14T22:11:41;1.67;;;0.90;;
39434;SDS011;66825;51.880;-0.518;2024-02-14T22:14:07;1.67;;;0.75;;
39434;SDS011;66825;51.880;-0.518;2024-02-14T22:16:33;1.08;;;0.55;;
39434;SDS011;66825;51.880;-0.518;2024-02-14T22:18:59;1.17;;;0.80;;
39434;SDS011;66825;51.880;-0.518;2024-02-14T22:21:27;1.15;;;0.60;;
39434;SDS011;66825;51.880;-0.518;2024-02-14T22:23:53;1.15;;;0.75;;
39434;SDS011;66825;51.880;-0.518;2024-02-14T22:26:18;1.00;;;0.60;;
39434;SDS011;66825;51.880;-0.518;2024-02-14T22:28:44;2.00;;;0.80;;
39434;SDS011;66825;51.880;-0.518;2024-02-14T22:31:10;1.50;;;0.70;;
39434;SDS011;66825;51.880;-0.518;2024-02-14T22:33:35;1.60;;;0.70;;
39434;SDS011;66825;51.880;-0.518;2024-02-14T22:36:00;1.27;;;0.70;;
39434;SDS011;66825;51.880;-0.518;2024-02-14T22:38:27;1.10;;;0.60;;
39434;SDS011;66825;51.880;-0.518;2024-02-14T22:40:53;1.83;;;0.70;;
39434;SDS011;66825;51.880;-0.518;2024-02-14T22:43:18;0.80;;;0.50;;
39434;SDS011;66825;51.880;-0.518;2024-02-14T22:45:43;2.90;;;0.85;;
39434;SDS011;66825;51.880;-0.518;2024-02-14T22:48:09;2.03;;;0.70;;
39434;SDS011;66825;51.880;-0.518;2024-02-14T22:50:34;1.30;;;0.70;;
39434;SDS011;66825;51.880;-0.518;2024-02-14T22:53:00;1.20;;;0.60;;
39434;SDS011;66825;51.880;-0.518;2024-02-14T22:55:26;1.00;;;0.57;;
39434;SDS011;66825;51.880;-0.518;2024-02-14T22:57:52;1.33;;;0.65;;
39434;SDS011;66825;51.880;-0.518;2024-02-14T23:00:18;1.40;;;0.60;;
39434;SDS011;66825;51.880;-0.518;2024-02-14T23:02:48;1.35;;;0.60;;
39434;SDS011;66825;51.880;-0.518;2024-02-14T23:05:15;1.45;;;0.70;;
39434;SDS011;66825;51.880;-0.518;2024-02-14T23:07:49;1.15;;;0.60;;
39434;SDS011;66825;51.880;-0.518;2024-02-14T23:10:15;1.00;;;0.47;;
39434;SDS011;66825;51.880;-0.518;2024-02-14T23:12:44;1.15;;;0.65;;
39434;SDS011;66825;51.880;-0.518;2024-02-14T23:15:13;1.38;;;0.77;;
39434;SDS011;66825;51.880;-0.518;2024-02-14T23:17:38;1.33;;;0.68;;
39434;SDS011;66825;51.880;-0.518;2024-02-14T23:20:07;1.08;;;0.40;;
39434;SDS011;66825;51.880;-0.518;2024-02-14T23:22:36;1.65;;;0.70;;
39434;SDS011;66825;51.880;-0.518;2024-02-14T23:25:03;1.48;;;0.50;;
39434;SDS011;66825;51.880;-0.518;2024-02-14T23:27:30;1.25;;;0.55;;
39434;SDS011;66825;51.880;-0.518;2024-02-14T23:29:57;0.63;;;0.50;;
39434;SDS011;66825;51.880;-0.518;2024-02-14T23:32:23;1.35;;;0.60;;
39434;SDS011;66825;51.880;-0.518;2024-02-14T23:34:49;0.90;;;0.50;;
39434;SDS011;66825;51.880;-0.518;2024-02-14T23:37:14;0.80;;;0.50;;
39434;SDS011;66825;51.880;-0.518;2024-02-14T23:39:40;1.42;;;0.70;;
39434;SDS011;66825;51.880;-0.518;2024-02-14T23:42:05;1.30;;;0.60;;
39434;SDS011;66825;51.880;-0.518;2024-02-14T23:44:31;1.00;;;0.50;;
39434;SDS011;66825;51.880;-0.518;2024-02-14T23:46:56;1.02;;;0.50;;
39434;SDS011;66825;51.880;-0.518;2024-02-14T23:49:22;1.23;;;0.60;;
39434;SDS011;66825;51.880;-0.518;2024-02-14T23:51:48;1.00;;;0.50;;
39434;SDS011;66825;51.880;-0.518;2024-02-14T23:54:13;0.90;;;0.40;;
39434;SDS011;66825;51.880;-0.518;2024-02-14T23:56:39;0.68;;;0.45;;
39434;SDS011;66825;51.880;-0.518;2024-02-14T23:59:05;1.02;;;0.55;;
